Time;durP1;ratioP1;P1;durP2;ratioP2;P2;SDS_P1;SDS_P2;PMS_P1;PMS_P2;Temp;Humidity;BMP_temperature;BMP_pressure;BME280_temperature;BME280_humidity;BME280_pressure;Samples;Min_cycle;Max_cycle;Signal;HPM_P1;HPM_P2
2024/04/11 00:02:03;;;;;;;5.33;4.00;;;6.80;1.00;;;;;;5524608;25;20312;-44
2024/04/11 00:04:29;;;;;;;4.47;4.03;;;6.70;1.00;;;;;;5527984;25;20357;-43
2024/04/11 00:06:55;;;;;;;5.37;3.60;;;6.70;80.50;;;;;;5528744;25;20232;-43
2024/04/11 00:09:20;;;;;;;4.00;3.40;;;6.70;99.90;;;;;;5528315;25;20453;-47
2024/04/11 00:11:46;;;;;;;5.33;4.47;;;6.70;99.90;;;;;;5529698;25;20232;-43
2024/04/11 00:14:11;;;;;;;8.57;3.60;;;6.70;99.90;;;;;;5529974;25;20232;-43
2024/04/11 00:16:37;;;;;;;4.73;3.10;;;6.70;99.90;;;;;;5532204;25;20224;-43
2024/04/11 00:19:03;;;;;;;8.80;3.07;;;6.60;99.90;;;;;;5530975;25;20301;-44
2024/04/11 00:21:29;;;;;;;7.77;3.40;;;6.60;99.90;;;;;;5529240;25;20764;-43
2024/04/11 00:23:55;;;;;;;6.27;3.70;;;6.60;99.90;;;;;;5531820;25;20312;-43
2024/04/11 00:26:22;;;;;;;4.87;4.03;;;6.60;99.90;;;;;;5530700;25;20440;-41
2024/04/11 00:28:47;;;;;;;4.90;3.50;;;6.60;99.90;;;;;;5529558;25;20215;-44
2024/04/11 00:31:14;;;;;;;4.40;3.30;;;6.60;99.90;;;;;;5531462;25;20937;-43
2024/04/11 00:33:54;;;;;;;4.77;3.40;;;6.60;99.90;;;;;;5530317;25;20232;-43
2024/04/11 00:36:24;;;;;;;6.90;3.23;;;6.60;99.90;;;;;;5528147;25;20460;-43
2024/04/11 00:38:51;;;;;;;5.33;3.33;;;6.60;99.90;;;;;;5527660;25;20444;-42
2024/04/11 00:41:17;;;;;;;5.50;3.67;;;6.60;99.90;;;;;;5528431;25;20512;-43
2024/04/11 00:43:43;;;;;;;5.07;2.87;;;6.60;99.90;;;;;;5528943;25;20492;-42
2024/04/11 00:46:10;;;;;;;6.20;4.30;;;6.50;99.90;;;;;;5526581;25;20746;-42
2024/04/11 00:48:39;;;;;;;3.50;3.20;;;6.50;99.90;;;;;;5526334;25;20748;-45
2024/04/11 00:51:05;;;;;;;3.77;3.07;;;6.40;99.90;;;;;;5529393;25;20493;-43
2024/04/11 00:53:31;;;;;;;5.80;3.10;;;6.40;1.00;;;;;;5527973;25;20449;-44
2024/04/11 00:55:56;;;;;;;5.77;3.20;;;6.40;1.00;;;;;;5529838;25;20444;-43
2024/04/11 00:58:22;;;;;;;3.83;3.40;;;6.40;1.00;;;;;;5529491;25;20243;-42
2024/04/11 01:00:48;;;;;;;5.10;3.40;;;6.40;1.00;;;;;;5527236;25;20231;-44
2024/04/11 01:03:15;;;;;;;4.80;3.10;;;6.30;1.00;;;;;;5529251;25;20428;-44
2024/04/11 01:05:41;;;;;;;4.03;3.40;;;6.30;1.00;;;;;;5530918;25;20804;-42
2024/04/11 01:08:07;;;;;;;5.67;4.07;;;6.30;1.00;;;;;;5529962;25;20464;-43
2024/04/11 01:10:37;;;;;;;8.43;4.40;;;6.20;1.00;;;;;;5527018;25;20227;-43
2024/04/11 01:13:05;;;;;;;5.70;4.43;;;6.20;1.00;;;;;;5529918;25;20460;-43
2024/04/11 01:15:32;;;;;;;7.27;4.17;;;6.10;85.60;;;;;;5531256;25;20445;-44
2024/04/11 01:17:57;;;;;;;5.13;3.40;;;6.10;99.90;;;;;;5529119;25;20721;-43
2024/04/11 01:20:23;;;;;;;4.03;3.63;;;6.00;99.90;;;;;;5528334;25;20492;-42
2024/04/11 01:22:49;;;;;;;6.03;3.97;;;6.00;99.90;;;;;;5529672;25;20223;-42
2024/04/11 01:25:17;;;;;;;7.47;3.90;;;5.90;99.90;;;;;;5528964;25;20239;-44
2024/04/11 01:27:43;;;;;;;6.33;3.90;;;5.90;99.90;;;;;;5528129;25;20255;-45
2024/04/11 01:30:11;;;;;;;6.77;4.20;;;5.90;99.90;;;;;;5529465;25;20692;-42
2024/04/11 01:32:37;;;;;;;7.77;4.10;;;5.90;99.90;;;;;;5526899;25;20889;-42
2024/04/11 01:35:04;;;;;;;7.17;4.50;;;5.90;99.90;;;;;;5529574;25;20456;-44
2024/04/11 01:37:30;;;;;;;5.47;3.53;;;5.90;99.90;;;;;;5528191;25;20456;-42
2024/04/11 01:39:56;;;;;;;6.20;4.07;;;5.90;99.90;;;;;;5528551;25;20549;-47
2024/04/11 01:42:21;;;;;;;4.77;3.70;;;5.90;99.90;;;;;;5529783;25;20498;-45
2024/04/11 01:44:47;;;;;;;5.97;4.00;;;5.90;99.90;;;;;;5530551;25;20618;-44
2024/04/11 01:47:15;;;;;;;5.37;4.20;;;5.90;99.90;;;;;;5532799;25;20448;-42
2024/04/11 01:49:43;;;;;;;4.70;3.50;;;5.90;99.90;;;;;;5501424;25;20243;-43
2024/04/11 01:52:12;;;;;;;4.83;3.83;;;5.90;99.90;;;;;;5531617;25;20517;-44
2024/04/11 01:54:41;;;;;;;5.10;3.50;;;5.90;99.90;;;;;;5532037;25;20747;-42
2024/04/11 01:57:08;;;;;;;7.23;3.70;;;5.90;99.90;;;;;;5533327;25;20918;-42
2024/04/11 01:59:34;;;;;;;5.97;3.53;;;5.90;99.90;;;;;;5530726;25;20436;-43
2024/04/11 02:05:22;;;;;;;4.77;3.70;;;5.80;99.90;;;;;;5523128;25;20604;-42
2024/04/11 02:07:47;;;;;;;5.23;3.67;;;5.70;99.90;;;;;;5532671;25;20471;-42
2024/04/11 02:10:13;;;;;;;6.43;3.93;;;5.70;99.90;;;;;;5532647;25;20258;-43
2024/04/11 02:12:39;;;;;;;4.90;3.80;;;5.70;99.90;;;;;;5531174;25;20323;-43
2024/04/11 02:15:10;;;;;;;4.80;3.53;;;5.70;99.90;;;;;;5532920;25;20477;-42
2024/04/11 02:17:35;;;;;;;5.63;4.47;;;5.60;99.90;;;;;;5530400;26;20439;-45
2024/04/11 02:20:02;;;;;;;6.53;4.37;;;5.50;99.90;;;;;;5531302;25;20550;-46
2024/04/11 02:22:28;;;;;;;5.50;4.03;;;5.50;99.90;;;;;;5531688;25;20339;-44
2024/04/11 02:24:53;;;;;;;6.30;3.90;;;5.50;99.90;;;;;;5531567;26;20457;-45
2024/04/11 02:27:19;;;;;;;4.60;3.30;;;5.50;99.90;;;;;;5531610;25;20262;-43
2024/04/11 02:29:47;;;;;;;8.67;4.33;;;5.50;99.90;;;;;;5530565;25;20532;-42
2024/04/11 02:32:12;;;;;;;8.70;4.90;;;5.50;99.90;;;;;;5531518;25;20450;-45
2024/04/11 02:34:38;;;;;;;4.83;4.13;;;5.50;99.90;;;;;;5531523;25;20449;-43
2024/04/11 02:37:05;;;;;;;5.27;4.33;;;5.50;99.90;;;;;;5531368;26;20463;-45
2024/04/11 02:39:31;;;;;;;7.57;4.27;;;5.50;99.90;;;;;;5530316;25;20231;-42
2024/04/11 02:41:57;;;;;;;4.97;3.73;;;5.50;99.90;;;;;;5530445;25;20512;-44
2024/04/11 02:44:24;;;;;;;4.40;4.00;;;5.40;99.90;;;;;;5531352;25;20672;-42
2024/04/11 02:46:50;;;;;;;5.33;3.97;;;5.40;99.90;;;;;;5531047;25;20464;-43
2024/04/11 02:49:15;;;;;;;4.70;4.17;;;5.40;99.90;;;;;;5531183;25;20505;-49
2024/04/11 02:51:41;;;;;;;4.93;3.57;;;5.40;99.90;;;;;;5531204;26;20316;-44
2024/04/11 02:54:07;;;;;;;4.50;3.07;;;5.40;99.90;;;;;;5531369;25;20236;-43
2024/04/11 02:56:33;;;;;;;3.67;3.30;;;5.30;99.90;;;;;;5531144;25;20224;-43
2024/04/11 02:58:58;;;;;;;4.83;3.47;;;5.20;1.00;;;;;;5528483;25;20546;-45
2024/04/11 03:01:25;;;;;;;5.17;4.47;;;5.20;1.00;;;;;;5531466;25;20216;-43
2024/04/11 03:03:55;;;;;;;4.13;3.30;;;5.20;1.00;;;;;;5529368;25;20289;-42
2024/04/11 03:06:21;;;;;;;4.50;3.77;;;5.20;1.00;;;;;;5531175;25;20477;-42
2024/04/11 03:08:52;;;;;;;7.53;3.80;;;5.20;1.00;;;;;;5530674;25;20678;-43
2024/04/11 03:11:18;;;;;;;6.13;4.20;;;5.20;1.00;;;;;;5530111;25;20508;-43
2024/04/11 03:13:44;;;;;;;4.87;4.30;;;5.10;1.00;;;;;;5529135;25;20573;-44
2024/04/11 03:16:14;;;;;;;8.10;4.30;;;5.20;1.00;;;;;;5529141;25;20436;-45
2024/04/11 03:18:40;;;;;;;7.43;4.03;;;5.20;1.00;;;;;;5529383;25;20267;-43
2024/04/11 03:21:06;;;;;;;9.47;4.07;;;5.20;1.00;;;;;;5528490;25;20789;-44
2024/04/11 03:23:32;;;;;;;4.87;4.47;;;5.20;1.00;;;;;;5529775;25;20503;-40
2024/04/11 03:25:58;;;;;;;6.70;4.70;;;5.10;1.00;;;;;;5529766;25;20288;-43
2024/04/11 03:28:24;;;;;;;7.43;3.80;;;5.10;1.00;;;;;;5528685;25;20441;-41
2024/04/11 03:31:00;;;;;;;5.17;3.60;;;5.10;1.00;;;;;;5526312;25;20444;-41
2024/04/11 03:33:26;;;;;;;8.07;3.97;;;5.10;1.00;;;;;;5526747;25;20527;-42
2024/04/11 03:35:56;;;;;;;4.67;3.97;;;5.00;1.00;;;;;;5528226;25;20452;-42
2024/04/11 03:38:25;;;;;;;5.60;4.30;;;5.00;1.00;;;;;;5529582;25;20912;-43
2024/04/11 03:41:04;;;;;;;4.50;4.10;;;5.00;1.00;;;;;;5529714;25;20572;-45
2024/04/11 03:43:33;;;;;;;5.20;3.87;;;5.00;1.00;;;;;;5530198;25;20987;-44
2024/04/11 03:46:20;;;;;;;6.40;4.60;;;5.00;1.00;;;;;;5530197;25;20528;-43
2024/04/11 03:48:46;;;;;;;5.47;4.27;;;5.10;1.00;;;;;;5530432;25;20968;-43
2024/04/11 03:51:18;;;;;;;4.80;4.00;;;5.00;1.00;;;;;;5530296;25;20467;-43
2024/04/11 03:53:44;;;;;;;5.23;4.00;;;5.10;1.00;;;;;;5529256;25;20511;-43
2024/04/11 03:56:11;;;;;;;4.93;3.93;;;5.00;1.00;;;;;;5526979;25;20507;-45
2024/04/11 03:58:37;;;;;;;4.63;3.67;;;5.00;1.00;;;;;;5526415;25;20444;-43
2024/04/11 04:01:12;;;;;;;9.30;4.10;;;5.00;1.00;;;;;;5526570;25;20444;-41
2024/04/11 04:03:40;;;;;;;5.67;4.57;;;5.00;1.00;;;;;;5527448;25;20605;-44
2024/04/11 04:06:06;;;;;;;7.10;4.37;;;5.00;1.00;;;;;;5526265;25;20541;-43
2024/04/11 04:08:33;;;;;;;7.80;4.50;;;4.90;1.00;;;;;;5524435;25;20452;-45
2024/04/11 04:10:59;;;;;;;8.20;4.67;;;5.00;1.00;;;;;;5524415;25;20283;-42
2024/04/11 04:13:26;;;;;;;6.17;4.10;;;5.00;1.00;;;;;;5526297;25;20444;-42
2024/04/11 04:15:53;;;;;;;5.23;3.90;;;4.90;1.00;;;;;;5527008;25;20491;-44
2024/04/11 04:18:19;;;;;;;4.40;4.00;;;4.90;1.00;;;;;;5526490;25;20800;-42
2024/04/11 04:20:56;;;;;;;4.90;4.40;;;4.90;1.00;;;;;;5527062;25;20503;-42
2024/04/11 04:23:22;;;;;;;4.20;3.80;;;4.90;1.00;;;;;;5529057;25;20452;-42
2024/04/11 04:25:59;;;;;;;7.23;4.40;;;4.90;1.00;;;;;;5528301;25;20460;-44
2024/04/11 04:28:32;;;;;;;7.87;4.10;;;4.80;1.00;;;;;;5528530;25;20698;-45
2024/04/11 04:31:21;;;;;;;9.40;4.67;;;4.80;1.00;;;;;;5525308;25;20585;-44
2024/04/11 04:33:50;;;;;;;4.67;4.27;;;4.80;1.00;;;;;;5526196;25;20876;-45
2024/04/11 04:36:20;;;;;;;3.90;3.50;;;4.80;1.00;;;;;;5529717;25;20905;-43
2024/04/11 04:38:47;;;;;;;4.20;3.80;;;4.80;1.00;;;;;;5529983;25;20457;-44
2024/04/11 04:41:13;;;;;;;6.60;3.97;;;4.70;1.00;;;;;;5528901;25;20453;-43
2024/04/11 04:43:41;;;;;;;7.30;4.67;;;4.60;1.00;;;;;;5526707;25;20449;-41
2024/04/11 04:46:06;;;;;;;5.37;3.90;;;4.60;1.00;;;;;;5525070;25;20750;-42
2024/04/11 04:48:35;;;;;;;7.80;4.37;;;4.60;1.00;;;;;;5527047;25;20492;-42
2024/04/11 04:51:00;;;;;;;4.80;4.33;;;4.60;1.00;;;;;;5526941;25;20235;-43
2024/04/11 04:53:26;;;;;;;5.67;4.33;;;4.60;1.00;;;;;;5524698;25;20508;-43
2024/04/11 04:55:54;;;;;;;6.07;4.73;;;4.70;1.00;;;;;;5525163;25;20266;-45
2024/04/11 04:58:20;;;;;;;7.40;4.23;;;4.70;1.00;;;;;;5522089;26;20254;-44
2024/04/11 05:00:46;;;;;;;5.53;4.67;;;4.70;1.00;;;;;;5527128;25;20437;-42
2024/04/11 05:03:12;;;;;;;6.60;4.87;;;4.70;1.00;;;;;;5522628;26;20283;-42
2024/04/11 05:05:41;;;;;;;5.93;3.73;;;4.70;1.00;;;;;;5520135;26;20524;-44
2024/04/11 05:08:07;;;;;;;4.60;4.20;;;4.70;1.00;;;;;;5488271;26;20711;-44
2024/04/11 05:10:34;;;;;;;7.70;4.60;;;4.70;1.00;;;;;;5487327;26;20553;-44
2024/04/11 05:13:01;;;;;;;5.37;4.87;;;4.80;1.00;;;;;;5486880;26;20481;-43
2024/04/11 05:15:27;;;;;;;7.90;5.37;;;4.80;1.00;;;;;;5485991;26;20505;-42
2024/04/11 05:17:53;;;;;;;7.70;5.00;;;4.70;1.00;;;;;;5454432;26;20460;-44
2024/04/11 05:20:27;;;;;;;7.97;4.20;;;4.70;1.00;;;;;;5484740;26;20454;-42
2024/04/11 05:22:53;;;;;;;15.40;14.10;;;4.70;1.00;;;;;;5488248;26;20446;-42
2024/04/11 05:25:19;;;;;;;15.17;13.57;;;4.70;1.00;;;;;;5487527;26;20704;-42
2024/04/11 05:27:44;;;;;;;10.97;9.90;;;4.70;1.00;;;;;;5487109;26;20533;-44
2024/04/11 05:30:13;;;;;;;12.87;10.60;;;4.80;1.00;;;;;;5487349;26;20313;-41
2024/04/11 05:32:41;;;;;;;14.10;11.37;;;4.80;1.00;;;;;;5486022;26;20225;-44
2024/04/11 05:35:09;;;;;;;12.33;11.03;;;4.90;1.00;;;;;;5520642;25;20565;-43
2024/04/11 05:37:36;;;;;;;12.30;10.77;;;5.00;1.00;;;;;;5524522;25;20503;-44
2024/04/11 05:40:05;;;;;;;8.50;7.70;;;5.10;1.00;;;;;;5505362;25;20449;-42
2024/04/11 05:42:31;;;;;;;9.27;6.90;;;5.10;1.00;;;;;;5490112;26;20441;-42
2024/04/11 05:44:57;;;;;;;8.40;7.50;;;5.20;1.00;;;;;;5455048;26;20912;-42
2024/04/11 05:47:23;;;;;;;9.80;7.40;;;5.20;1.00;;;;;;5487947;26;20481;-44
2024/04/11 05:49:48;;;;;;;8.03;7.00;;;5.30;1.00;;;;;;5487317;26;20262;-43
2024/04/11 05:52:14;;;;;;;11.67;6.00;;;5.40;1.00;;;;;;5485966;26;20426;-44
2024/04/11 05:54:40;;;;;;;9.10;6.00;;;5.50;1.00;;;;;;5485779;26;20286;-45
2024/04/11 05:57:06;;;;;;;6.00;5.33;;;5.60;1.00;;;;;;5489343;26;20598;-43
2024/04/11 05:59:32;;;;;;;7.07;6.37;;;5.70;1.00;;;;;;5488996;26;20648;-45
2024/04/11 06:02:01;;;;;;;8.30;5.63;;;5.80;1.00;;;;;;5491099;26;20870;-44
2024/04/11 06:04:26;;;;;;;7.43;5.60;;;6.00;1.00;;;;;;5493538;26;20458;-43
2024/04/11 06:06:52;;;;;;;9.97;6.40;;;6.10;1.00;;;;;;5491451;26;20552;-44
2024/04/11 06:09:17;;;;;;;8.23;6.00;;;6.30;1.00;;;;;;5489512;26;20290;-44
2024/04/11 06:11:43;;;;;;;6.13;5.53;;;6.40;99.90;;;;;;5489940;26;20633;-43
2024/04/11 06:14:09;;;;;;;7.07;5.30;;;6.60;99.90;;;;;;5492346;26;20224;-43
2024/04/11 06:16:37;;;;;;;8.40;5.60;;;6.70;99.90;;;;;;5494165;26;20279;-44
2024/04/11 06:19:03;;;;;;;8.03;5.70;;;7.00;99.90;;;;;;5492084;26;20863;-44
2024/04/11 06:21:32;;;;;;;5.83;4.80;;;7.20;1.00;;;;;;5486935;26;20915;-43
2024/04/11 06:23:59;;;;;;;5.53;4.40;;;7.50;1.00;;;;;;5488313;26;20506;-43
2024/04/11 06:26:24;;;;;;;6.87;4.37;;;7.60;99.90;;;;;;5492515;26;20579;-43
2024/04/11 06:28:51;;;;;;;7.40;3.90;;;7.80;99.90;;;;;;5491505;26;20454;-42
2024/04/11 06:31:17;;;;;;;9.10;4.10;;;8.10;1.00;;;;;;5487084;26;20341;-46
2024/04/11 06:33:43;;;;;;;6.90;6.00;;;8.90;1.00;;;;;;5487956;26;20457;-45
2024/04/11 06:36:10;;;;;;;10.17;5.60;;;9.70;99.90;;;;;;5491569;26;20525;-46
2024/04/11 06:38:36;;;;;;;8.30;4.70;;;10.10;1.00;;;;;;5492635;26;20275;-42
2024/04/11 06:41:04;;;;;;;5.37;4.10;;;10.20;99.90;;;;;;5492782;26;20466;-46
2024/04/11 06:43:31;;;;;;;5.50;3.90;;;10.30;1.00;;;;;;5489993;26;20442;-43
2024/04/11 06:45:57;;;;;;;7.90;4.70;;;10.30;1.00;;;;;;5485155;26;20777;-45
2024/04/11 06:48:23;;;;;;;8.50;3.60;;;10.20;1.00;;;;;;5485416;26;20466;-45
2024/04/11 06:50:50;;;;;;;5.27;3.60;;;10.10;1.00;;;;;;5486210;26;20224;-44
2024/04/11 06:53:17;;;;;;;7.30;4.13;;;10.10;25.80;;;;;;5483324;26;20546;-45
2024/04/11 06:55:46;;;;;;;7.13;3.50;;;10.20;55.40;;;;;;5487284;26;20569;-44
2024/04/11 06:58:17;;;;;;;6.40;4.00;;;10.30;32.20;;;;;;5486630;26;20442;-47
2024/04/11 07:00:43;;;;;;;10.40;4.40;;;10.30;93.30;;;;;;5488974;26;20761;-45
2024/04/11 07:03:25;;;;;;;6.13;4.93;;;10.50;99.90;;;;;;5488246;26;20515;-42
2024/04/11 07:05:59;;;;;;;10.90;5.93;;;10.60;73.60;;;;;;5487637;26;20237;-43
2024/04/11 07:08:29;;;;;;;8.37;6.10;;;10.70;1.00;;;;;;5489091;26;20450;-43
2024/04/11 07:10:58;;;;;;;10.50;6.53;;;10.50;1.00;;;;;;5491041;26;20450;-43
2024/04/11 07:13:25;;;;;;;10.53;6.97;;;10.50;1.00;;;;;;5490921;26;20860;-44
2024/04/11 07:15:52;;;;;;;13.23;6.83;;;10.50;1.00;;;;;;5491092;26;20446;-44
2024/04/11 07:18:17;;;;;;;8.13;5.80;;;10.50;1.00;;;;;;5489532;26;20454;-42
2024/04/11 07:20:46;;;;;;;13.40;5.37;;;10.80;1.00;;;;;;5490532;26;20507;-43
2024/04/11 07:23:12;;;;;;;9.00;5.93;;;11.10;1.00;;;;;;5490991;26;20655;-43
2024/04/11 07:25:38;;;;;;;8.60;5.33;;;11.10;1.00;;;;;;5489139;26;20890;-43
2024/04/11 07:28:06;;;;;;;9.10;4.63;;;11.30;1.00;;;;;;5489752;26;20450;-44
2024/04/11 07:30:32;;;;;;;10.73;5.50;;;11.60;99.90;;;;;;5487478;26;20674;-42
2024/04/11 07:32:58;;;;;;;10.37;5.27;;;11.90;99.90;;;;;;5490890;26;20516;-43
2024/04/11 07:35:30;;;;;;;11.13;5.40;;;12.20;99.90;;;;;;5487894;26;20506;-44
2024/04/11 07:37:59;;;;;;;10.40;4.80;;;12.20;99.90;;;;;;5486301;26;20358;-42
2024/04/11 07:40:27;;;;;;;7.43;5.10;;;12.50;99.90;;;;;;5489457;26;20450;-42
2024/04/11 07:43:06;;;;;;;7.30;4.90;;;12.80;99.90;;;;;;5487117;26;20852;-43
2024/04/11 07:45:38;;;;;;;7.90;5.10;;;13.20;99.90;;;;;;5487627;26;20922;-44
2024/04/11 07:48:05;;;;;;;7.33;4.63;;;13.40;57.60;;;;;;5486878;26;20469;-45
2024/04/11 07:50:32;;;;;;;10.47;4.40;;;13.50;24.50;;;;;;5489193;26;20688;-46
2024/04/11 07:52:57;;;;;;;12.83;5.83;;;13.60;16.70;;;;;;5487495;26;20465;-44
2024/04/11 07:55:23;;;;;;;9.30;4.47;;;13.70;1.00;;;;;;5490034;26;20802;-43
2024/04/11 07:57:50;;;;;;;6.20;4.50;;;13.80;1.00;;;;;;5488334;26;20255;-43
2024/04/11 08:00:27;;;;;;;11.13;4.77;;;14.10;1.90;;;;;;5489247;26;20676;-43
2024/04/11 08:03:00;;;;;;;6.53;3.90;;;14.50;1.00;;;;;;5491296;26;20450;-46
2024/04/11 08:05:26;;;;;;;10.00;5.83;;;14.90;1.00;;;;;;5491413;26;20474;-46
2024/04/11 08:07:52;;;;;;;7.30;4.60;;;15.30;1.00;;;;;;5488301;26;20985;-44
2024/04/11 08:10:21;;;;;;;8.20;4.10;;;15.40;1.00;;;;;;5492289;26;20254;-44
2024/04/11 08:12:47;;;;;;;9.40;4.13;;;15.30;1.00;;;;;;5490749;26;20442;-45
2024/04/11 08:15:14;;;;;;;6.83;4.00;;;15.50;1.00;;;;;;5491533;26;20911;-42
2024/04/11 08:17:42;;;;;;;5.23;3.60;;;15.50;1.00;;;;;;5492288;26;20297;-44
2024/04/11 08:20:14;;;;;;;7.83;3.50;;;15.40;1.00;;;;;;5491905;26;20457;-43
2024/04/11 08:22:41;;;;;;;8.33;3.43;;;15.30;1.00;;;;;;5491054;26;20453;-44
2024/04/11 08:25:12;;;;;;;5.60;2.53;;;15.70;1.00;;;;;;5492095;26;20502;-42
2024/04/11 08:27:38;;;;;;;8.23;3.10;;;16.00;1.00;;;;;;5491808;26;20527;-42
2024/04/11 08:30:08;;;;;;;4.90;2.77;;;16.40;1.00;;;;;;5488648;26;20485;-45
2024/04/11 08:32:45;;;;;;;5.67;2.90;;;16.90;1.00;;;;;;5491962;26;20843;-43
2024/04/11 08:35:12;;;;;;;7.50;3.57;;;17.10;1.00;;;;;;5492327;26;20461;-43
2024/04/11 08:37:38;;;;;;;6.50;3.23;;;17.30;1.00;;;;;;5490195;26;20530;-43
2024/04/11 08:40:10;;;;;;;5.07;2.90;;;17.40;1.00;;;;;;5489508;26;20926;-42
2024/04/11 08:42:38;;;;;;;5.63;2.70;;;17.40;1.00;;;;;;5484742;26;20217;-44
2024/04/11 08:45:06;;;;;;;5.27;3.00;;;17.40;1.00;;;;;;5489764;26;20500;-44
2024/04/11 08:47:33;;;;;;;5.23;3.10;;;17.40;1.00;;;;;;5489218;26;20677;-44
2024/04/11 08:49:58;;;;;;;5.83;3.83;;;17.40;1.00;;;;;;5489136;26;20501;-43
2024/04/11 08:52:29;;;;;;;6.70;4.77;;;17.30;1.00;;;;;;5489383;26;20438;-43
2024/04/11 08:54:55;;;;;;;3.37;3.07;;;17.40;1.00;;;;;;5490073;26;20267;-42
2024/04/11 08:57:21;;;;;;;5.43;2.77;;;17.50;1.00;;;;;;5490487;26;20450;-45
2024/04/11 08:59:48;;;;;;;5.43;3.00;;;17.90;1.00;;;;;;5491706;26;20921;-43
2024/04/11 09:02:14;;;;;;;5.00;3.13;;;17.90;1.00;;;;;;5488892;26;20505;-43
2024/04/11 09:04:39;;;;;;;4.90;3.00;;;18.00;1.00;;;;;;5487840;26;20481;-45
2024/04/11 09:07:14;;;;;;;13.53;3.53;;;18.00;1.00;;;;;;5490350;26;20221;-42
2024/04/11 09:09:39;;;;;;;5.37;3.00;;;18.40;1.00;;;;;;5491023;26;20695;-43
2024/04/11 09:12:05;;;;;;;4.60;2.10;;;18.70;1.00;;;;;;5488338;26;20510;-45
2024/04/11 09:14:31;;;;;;;7.03;2.30;;;18.70;1.00;;;;;;5484450;26;20668;-44
2024/04/11 09:17:04;;;;;;;5.63;2.03;;;18.80;1.00;;;;;;5487383;26;20461;-43
2024/04/11 09:19:39;;;;;;;4.50;2.50;;;18.70;1.00;;;;;;5484779;26;20438;-42
2024/04/11 09:22:14;;;;;;;5.50;2.67;;;18.70;1.00;;;;;;5488301;26;20449;-42
2024/04/11 09:24:41;;;;;;;6.37;2.60;;;18.70;1.00;;;;;;5525622;25;20520;-42
2024/04/11 09:27:08;;;;;;;3.63;2.47;;;18.60;1.00;;;;;;5488860;25;20533;-44
2024/04/11 09:29:35;;;;;;;3.30;2.10;;;18.50;1.00;;;;;;5486978;26;20539;-44
2024/04/11 09:32:03;;;;;;;4.70;2.90;;;18.80;1.00;;;;;;5488094;26;20446;-42
2024/04/11 09:34:32;;;;;;;3.43;2.40;;;19.30;1.00;;;;;;5487453;26;20505;-45
2024/04/11 09:37:04;;;;;;;5.00;2.33;;;19.60;1.00;;;;;;5489825;26;20434;-42
2024/04/11 09:39:49;;;;;;;6.33;2.57;;;19.50;1.00;;;;;;5490245;26;20454;-44
2024/04/11 09:42:19;;;;;;;4.83;2.60;;;19.80;1.00;;;;;;5487897;26;20461;-44
2024/04/11 09:44:52;;;;;;;5.17;2.93;;;19.90;1.00;;;;;;5488262;26;20458;-44
2024/04/11 09:47:34;;;;;;;7.53;2.73;;;19.20;1.00;;;;;;5488697;26;20453;-42
2024/04/11 09:50:04;;;;;;;3.93;2.40;;;19.50;1.00;;;;;;5488259;26;20593;-44
2024/04/11 09:52:34;;;;;;;3.40;2.40;;;19.60;1.00;;;;;;5489045;26;20498;-47
2024/04/11 09:55:04;;;;;;;5.93;2.50;;;20.10;1.00;;;;;;5488527;26;20855;-43
2024/04/11 09:57:33;;;;;;;7.63;2.93;;;20.20;1.00;;;;;;5486809;26;20449;-43
2024/04/11 10:00:07;;;;;;;4.73;2.33;;;19.80;1.00;;;;;;5486851;26;20454;-44
2024/04/11 10:02:38;;;;;;;4.47;2.53;;;20.00;1.00;;;;;;5489787;26;20454;-43
2024/04/11 10:05:16;;;;;;;4.43;2.10;;;20.00;1.00;;;;;;5489820;26;20489;-44
2024/04/11 10:07:43;;;;;;;3.70;2.47;;;20.60;1.00;;;;;;5490642;26;20579;-45
2024/04/11 10:10:19;;;;;;;3.77;2.30;;;21.00;1.00;;;;;;5491727;26;20449;-46
2024/04/11 10:12:51;;;;;;;4.90;2.13;;;21.50;1.00;;;;;;5493713;26;20713;-45
2024/04/11 10:15:18;;;;;;;3.93;2.07;;;22.00;1.00;;;;;;5491158;26;20454;-44
2024/04/11 10:17:48;;;;;;;4.67;2.20;;;21.60;1.00;;;;;;5492100;26;20510;-43
2024/04/11 10:20:14;;;;;;;6.47;2.10;;;20.90;1.00;;;;;;5491277;26;20530;-42
2024/04/11 10:22:43;;;;;;;4.43;2.00;;;20.50;1.00;;;;;;5492560;26;20457;-46
2024/04/11 10:25:17;;;;;;;3.00;1.80;;;20.30;1.00;;;;;;5491471;26;20676;-42
2024/04/11 10:27:47;;;;;;;4.77;2.27;;;20.50;1.00;;;;;;5491215;26;20815;-45
2024/04/11 10:30:17;;;;;;;6.90;2.30;;;20.90;1.00;;;;;;5491001;26;20512;-44
2024/04/11 10:32:46;;;;;;;5.63;2.30;;;21.10;1.00;;;;;;5489380;26;20450;-44
2024/04/11 10:35:14;;;;;;;7.80;1.90;;;21.30;1.00;;;;;;5494106;26;20466;-46
2024/04/11 10:37:40;;;;;;;6.50;3.00;;;21.70;1.00;;;;;;5491766;26;20458;-44
2024/04/11 10:40:09;;;;;;;4.93;2.80;;;22.10;1.00;;;;;;5493316;26;20585;-44
2024/04/11 10:43:11;;;;;;;3.17;2.10;;;22.30;1.00;;;;;;5490853;26;20494;-44
2024/04/11 10:45:29;;;;;;;4.40;2.77;;;23.10;1.00;;;;;;5490339;26;20466;-45
2024/04/11 10:47:57;;;;;;;4.77;2.00;;;23.70;1.00;;;;;;5489508;26;20475;-43
2024/04/11 10:50:23;;;;;;;4.07;2.40;;;24.40;1.00;;;;;;5491126;26;20461;-44
2024/04/11 10:52:49;;;;;;;3.03;2.43;;;24.80;1.00;;;;;;5491150;26;20461;-44
2024/04/11 10:55:28;;;;;;;5.50;2.63;;;24.80;1.00;;;;;;5489191;26;20496;-44
2024/04/11 10:58:13;;;;;;;3.90;2.60;;;25.00;1.00;;;;;;5489358;26;20247;-45
2024/04/11 11:06:40;;;;;;;5.80;3.00;;;25.80;1.00;;;;;;5492185;26;20510;-43
2024/04/11 11:09:13;;;;;;;6.53;3.20;;;25.90;1.00;;;;;;5491725;26;20512;-45
2024/04/11 11:11:43;;;;;;;5.20;2.90;;;25.60;1.00;;;;;;5490339;26;20963;-43
2024/04/11 11:14:09;;;;;;;2.90;2.37;;;25.10;1.00;;;;;;5484612;26;20477;-44
2024/04/11 11:16:43;;;;;;;6.60;2.90;;;25.40;1.00;;;;;;5488320;26;20511;-46
2024/04/11 11:19:11;;;;;;;5.97;2.83;;;25.80;1.00;;;;;;5487289;26;20449;-44
2024/04/11 11:21:40;;;;;;;3.67;2.20;;;26.00;1.00;;;;;;5488830;26;20430;-45
2024/04/11 11:24:06;;;;;;;6.13;2.70;;;26.40;1.00;;;;;;5489656;26;20998;-46
2024/04/11 11:26:35;;;;;;;4.70;3.13;;;26.60;1.00;;;;;;5490184;26;20703;-45
2024/04/11 11:29:07;;;;;;;5.30;3.60;;;26.60;1.00;;;;;;5487287;26;20514;-45
2024/04/11 11:31:36;;;;;;;5.90;3.50;;;26.70;1.00;;;;;;5490326;26;20454;-45
2024/04/11 11:34:09;;;;;;;8.33;3.37;;;26.80;1.00;;;;;;5488580;26;20434;-44
2024/04/11 11:36:44;;;;;;;4.60;3.20;;;27.10;1.00;;;;;;5488078;26;20493;-46
2024/04/11 11:39:24;;;;;;;5.63;3.03;;;27.40;1.00;;;;;;5490777;26;20461;-45
2024/04/11 11:41:55;;;;;;;4.23;3.50;;;27.50;1.00;;;;;;5489517;26;20504;-44
2024/04/11 11:44:21;;;;;;;4.93;3.50;;;27.30;1.00;;;;;;5491235;26;20931;-51
2024/04/11 11:47:05;;;;;;;4.83;3.50;;;27.10;1.00;;;;;;5489498;26;20469;-47
2024/04/11 11:49:38;;;;;;;5.23;3.20;;;27.20;1.00;;;;;;5489894;26;20434;-44
2024/04/11 11:52:04;;;;;;;7.40;3.10;;;27.70;1.00;;;;;;5490696;26;20454;-43
2024/04/11 11:54:34;;;;;;;7.90;3.50;;;28.40;1.00;;;;;;5487815;26;20430;-44
2024/04/11 11:57:09;;;;;;;6.40;3.53;;;28.70;1.00;;;;;;5484034;26;20819;-46
2024/04/11 11:59:36;;;;;;;5.20;2.63;;;28.40;1.00;;;;;;5486510;26;20546;-44
2024/04/11 12:02:04;;;;;;;7.63;2.73;;;28.20;1.00;;;;;;5506980;25;20579;-44
2024/04/11 12:04:30;;;;;;;4.10;2.70;;;28.00;1.00;;;;;;5525901;25;20519;-44
2024/04/11 12:07:00;;;;;;;5.60;2.73;;;27.80;1.00;;;;;;5526054;25;20397;-47
2024/04/11 12:09:31;;;;;;;5.10;2.53;;;27.60;1.00;;;;;;5524866;25;20700;-51
2024/04/11 12:14:42;;;;;;;4.67;3.00;;;28.00;1.00;;;;;;5526590;25;20962;-43
2024/04/11 12:17:10;;;;;;;3.80;2.53;;;28.80;1.00;;;;;;5526970;25;20428;-44
2024/04/11 12:19:36;;;;;;;5.23;2.63;;;29.20;1.00;;;;;;5527660;25;20509;-47
2024/04/11 12:22:20;;;;;;;4.07;2.20;;;29.80;1.00;;;;;;5527114;25;20511;-44
2024/04/11 12:24:46;;;;;;;4.40;3.13;;;30.30;1.00;;;;;;5523582;26;20262;-44
2024/04/11 12:27:13;;;;;;;4.73;2.83;;;30.10;1.00;;;;;;5507291;25;20595;-44
2024/04/11 12:29:43;;;;;;;3.13;2.53;;;29.50;1.00;;;;;;5487419;26;20458;-46
2024/04/11 12:32:12;;;;;;;3.90;2.40;;;28.90;1.00;;;;;;5484358;26;20506;-45
2024/04/11 12:34:42;;;;;;;4.70;2.17;;;29.00;1.00;;;;;;5485912;26;20470;-45
2024/04/11 12:37:11;;;;;;;7.53;2.80;;;29.30;1.00;;;;;;5483863;26;20458;-45
2024/04/11 12:39:45;;;;;;;5.23;2.97;;;29.50;1.00;;;;;;5491032;26;20548;-47
2024/04/11 12:42:17;;;;;;;5.70;2.67;;;28.90;1.00;;;;;;5489984;26;20509;-45
2024/04/11 12:44:45;;;;;;;4.90;2.67;;;28.70;1.00;;;;;;5491242;26;20438;-51
2024/04/11 12:47:14;;;;;;;3.40;2.87;;;28.60;1.00;;;;;;5489161;26;20891;-44
2024/04/11 12:49:49;;;;;;;4.10;2.40;;;28.90;1.00;;;;;;5489011;26;20464;-48
2024/04/11 12:52:26;;;;;;;5.00;2.57;;;28.60;1.00;;;;;;5488260;26;20549;-46
2024/04/11 12:54:58;;;;;;;8.23;2.83;;;28.10;1.00;;;;;;5487641;26;20942;-50
2024/04/11 12:57:28;;;;;;;5.10;2.50;;;28.30;1.00;;;;;;5485788;26;20469;-45
2024/04/11 12:59:56;;;;;;;6.93;2.10;;;28.30;1.00;;;;;;5488872;26;20768;-49
2024/04/11 13:02:23;;;;;;;5.43;2.80;;;28.50;1.00;;;;;;5485667;26;20965;-45
2024/04/11 13:04:49;;;;;;;3.73;2.30;;;28.40;1.00;;;;;;5483478;26;20549;-51
2024/04/11 13:07:19;;;;;;;3.50;2.60;;;28.20;1.00;;;;;;5481867;26;20494;-45
2024/04/11 13:09:54;;;;;;;8.17;2.83;;;28.10;1.00;;;;;;5484891;26;20426;-47
2024/04/11 13:12:22;;;;;;;5.33;2.70;;;28.30;1.00;;;;;;5484823;26;20457;-45
2024/04/11 13:17:33;;;;;;;5.93;2.47;;;29.00;1.00;;;;;;5486471;26;20760;-47
2024/04/11 13:19:59;;;;;;;3.83;2.20;;;29.50;1.00;;;;;;5484403;26;20446;-44